createdAt,value
2023-09-08T00:01:31.613Z,97265.02
2023-09-08T00:04:01.943Z,97257.58
2023-09-08T00:06:33.255Z,97257.28
2023-09-08T00:09:03.549Z,97259.77
2023-09-08T00:11:33.668Z,97252.94
2023-09-08T00:14:05.040Z,97252.41
2023-09-08T00:16:35.264Z,97249.18
2023-09-08T00:19:05.684Z,97246.70
2023-09-08T00:21:35.869Z,97245.66
2023-09-08T00:24:06.258Z,97247.05
2023-09-08T00:26:36.336Z,97224.63
2023-09-08T00:29:07.925Z,97218.66
2023-09-08T00:31:40.757Z,97224.63
2023-09-08T00:34:11.305Z,97233.38
2023-09-08T00:36:41.318Z,97229.80
2023-09-08T00:39:11.636Z,97231.68
2023-09-08T00:41:41.713Z,97238.50
2023-09-08T00:44:13.371Z,97254.64
2023-09-08T00:46:44.986Z,97255.73
2023-09-08T00:49:15.126Z,97256.26
2023-09-08T00:51:45.127Z,97244.28
2023-09-08T00:54:15.648Z,97234.98
2023-09-08T00:56:46.048Z,97227.89
2023-09-08T00:59:16.035Z,97225.71
2023-09-08T01:01:46.300Z,97227.33
2023-09-08T01:04:16.654Z,97231.97
2023-09-08T01:06:47.613Z,97229.48
2023-09-08T01:09:17.940Z,97241.77
2023-09-08T01:11:48.740Z,97239.03
2023-09-08T01:14:23.450Z,97263.38
2023-09-08T01:16:54.012Z,97272.13
2023-09-08T01:19:25.037Z,97250.80
2023-09-08T01:22:09.691Z,97251.91
2023-09-08T01:27:39.614Z,97255.16
2023-09-08T01:30:10.281Z,97257.88
2023-09-08T01:32:40.594Z,97261.16
2023-09-08T01:35:11.176Z,97257.86
2023-09-08T01:37:43.813Z,97275.38
2023-09-08T01:40:14.562Z,97281.92
2023-09-08T01:42:44.626Z,97286.34
2023-09-08T01:45:15.235Z,97290.48
2023-09-08T01:47:45.466Z,97290.23
2023-09-08T01:50:15.535Z,97276.57
2023-09-08T01:52:47.037Z,97277.94
2023-09-08T01:57:58.675Z,97277.11
2023-09-08T02:00:28.886Z,97275.18
2023-09-08T02:02:59.146Z,97274.88
2023-09-08T02:05:30.864Z,97274.04
2023-09-08T02:08:01.219Z,97274.04
2023-09-08T02:10:31.367Z,97274.32
2023-09-08T02:13:01.932Z,97280.63
2023-09-08T02:15:32.303Z,97282.52
2023-09-08T02:18:02.664Z,97289.09
2023-09-08T02:20:32.754Z,97287.16
2023-09-08T02:23:05.580Z,97301.38
2023-09-08T02:25:37.027Z,97305.48
2023-09-08T02:28:08.151Z,97309.28
2023-09-08T02:30:38.668Z,97306.28
2023-09-08T02:33:08.911Z,97301.88
2023-09-08T02:35:43.870Z,97302.98
2023-09-08T02:38:13.943Z,97309.00
2023-09-08T02:40:44.244Z,97309.52
2023-09-08T02:43:14.119Z,97311.17
2023-09-08T02:45:46.869Z,97318.56
2023-09-08T02:48:17.134Z,97311.97
2023-09-08T02:50:48.675Z,97322.91
2023-09-08T02:53:18.766Z,97315.52
2023-09-08T02:55:49.998Z,97322.09
2023-09-08T02:58:20.263Z,97323.45
2023-09-08T03:00:52.878Z,97324.81
2023-09-08T03:03:23.722Z,97327.00
2023-09-08T03:05:58.439Z,97323.45
2023-09-08T03:08:29.284Z,97328.06
2023-09-08T03:11:00.230Z,97328.36
2023-09-08T03:13:31.112Z,97335.19
2023-09-08T03:16:02.732Z,97329.97
2023-09-08T03:18:34.541Z,97331.89
2023-09-08T03:21:06.180Z,97332.70
2023-09-08T03:23:38.899Z,97326.40
2023-09-08T03:26:09.107Z,97333.24
2023-09-08T03:28:39.078Z,97324.47
2023-09-08T03:31:09.153Z,97332.67
2023-09-08T03:33:39.548Z,97334.30
2023-09-08T03:36:09.959Z,97331.56
2023-09-08T03:38:40.050Z,97327.75
2023-09-08T03:41:10.416Z,97339.77
2023-09-08T03:43:41.878Z,97335.10
2023-09-08T03:46:11.952Z,97332.66
2023-09-08T03:48:42.217Z,97335.94
2023-09-08T03:51:13.861Z,97341.67
2023-09-08T03:53:43.827Z,97341.92
2023-09-08T03:56:14.009Z,97335.08
2023-09-08T03:58:44.159Z,97335.89
2023-09-08T04:01:14.214Z,97336.18
2023-09-08T04:03:44.470Z,97331.52
2023-09-08T04:06:15.843Z,97337.53
2023-09-08T04:08:49.188Z,97334.80
2023-09-08T04:11:19.468Z,97335.08
2023-09-08T04:13:49.646Z,97331.79
2023-09-08T04:16:19.879Z,97326.04
2023-09-08T04:18:50.138Z,97322.74
2023-09-08T04:21:20.362Z,97323.55
2023-09-08T04:23:50.436Z,97318.36
2023-09-08T04:26:20.493Z,97322.17
2023-09-08T04:28:50.370Z,97323.54
2023-09-08T04:31:21.385Z,97327.94
2023-09-08T04:34:12.180Z,97320.78
2023-09-08T04:36:42.352Z,97322.97
2023-09-08T04:39:13.420Z,97319.70
2023-09-08T04:41:43.773Z,97318.32
2023-09-08T04:44:14.857Z,97319.69
2023-09-08T04:46:45.122Z,97317.77
2023-09-08T04:49:15.431Z,97322.94
2023-09-08T04:51:45.906Z,97315.53
2023-09-08T04:54:16.051Z,97311.73
2023-09-08T04:56:46.070Z,97314.70
2023-09-08T04:59:17.246Z,97311.41
2023-09-08T05:01:47.291Z,97313.62
2023-09-08T05:04:17.516Z,97305.41
2023-09-08T05:06:47.766Z,97311.39
2023-09-08T05:09:17.905Z,97309.21
2023-09-08T05:11:49.260Z,97309.50
2023-09-08T05:14:19.382Z,97301.53
2023-09-08T05:16:50.847Z,97304.27
2023-09-08T05:19:22.802Z,97334.39
2023-09-08T05:21:55.278Z,97325.89
2023-09-08T05:24:26.971Z,97331.14
2023-09-08T05:26:58.817Z,97326.02
2023-09-08T05:29:29.044Z,97327.43
2023-09-08T05:31:59.008Z,97309.94
2023-09-08T05:34:29.082Z,97297.63
2023-09-08T05:36:59.357Z,97290.48
2023-09-08T05:39:29.436Z,97294.58
2023-09-08T05:41:59.655Z,97280.06
2023-09-08T05:44:30.892Z,97278.67
2023-09-08T05:47:21.157Z,97266.89
2023-09-08T05:49:51.712Z,97268.77
2023-09-08T05:52:21.778Z,97264.69
2023-09-08T05:54:51.877Z,97263.59
2023-09-08T05:57:22.040Z,97266.03
2023-09-08T05:59:52.262Z,97268.50
2023-09-08T06:02:22.274Z,97268.48
2023-09-08T06:04:52.403Z,97260.52
2023-09-08T06:07:22.841Z,97258.59
2023-09-08T06:09:53.168Z,97262.44
2023-09-08T06:12:23.254Z,97267.64
2023-09-08T06:14:53.513Z,97265.43
2023-09-08T06:17:23.843Z,97288.44
2023-09-08T06:19:54.381Z,97283.77
2023-09-08T06:22:26.073Z,97289.31
2023-09-08T06:24:57.519Z,97298.13
2023-09-08T06:27:28.662Z,97298.74
2023-09-08T06:29:58.885Z,97276.36
2023-09-08T06:32:29.425Z,97281.28
2023-09-08T06:35:00.801Z,97284.28
2023-09-08T06:37:32.305Z,97283.45
2023-09-08T06:40:02.979Z,97286.17
2023-09-08T06:42:33.417Z,97289.72
2023-09-08T06:45:03.439Z,97290.81
2023-09-08T06:47:33.543Z,97289.44
2023-09-08T06:50:05.185Z,97295.70
2023-09-08T06:52:36.480Z,97294.59
2023-09-08T06:55:06.935Z,97295.95
2023-09-08T06:57:37.177Z,97297.86
2023-09-08T07:00:12.746Z,97296.22
2023-09-08T07:02:43.445Z,97299.22
2023-09-08T07:05:13.712Z,97299.77
2023-09-08T07:07:44.553Z,97298.64
2023-09-08T07:10:15.339Z,97295.36
2023-09-08T07:12:45.606Z,97295.89
2023-09-08T07:15:15.643Z,97296.73
2023-09-08T07:17:45.652Z,97298.39
2023-09-08T07:20:15.822Z,97305.75
2023-09-08T07:22:45.682Z,97302.76
2023-09-08T07:25:15.682Z,97310.96
2023-09-08T07:27:45.864Z,97304.11
2023-09-08T07:30:16.880Z,97298.89
2023-09-08T07:32:46.902Z,97324.36
2023-09-08T07:35:18.709Z,97319.45
2023-09-08T07:37:49.727Z,97322.77
2023-09-08T07:40:19.778Z,97315.75
2023-09-08T07:42:49.969Z,97305.92
2023-09-08T07:45:21.468Z,97300.76
2023-09-08T07:47:51.659Z,97309.78
2023-09-08T07:50:27.093Z,97312.51
2023-09-08T07:52:58.016Z,97307.83
2023-09-08T07:55:33.237Z,97305.09
2023-09-08T07:58:06.608Z,97310.55
2023-09-08T08:00:36.525Z,97312.17
2023-09-08T08:03:08.241Z,97310.54
2023-09-08T08:05:38.315Z,97312.42
2023-09-08T08:08:09.579Z,97313.77
2023-09-08T08:10:39.510Z,97313.50
2023-09-08T08:13:09.421Z,97315.42
2023-09-08T08:15:42.398Z,97311.31
2023-09-08T08:18:12.597Z,97307.19
2023-09-08T08:20:42.760Z,97314.30
2023-09-08T08:23:14.605Z,97312.37
2023-09-08T08:25:44.525Z,97317.02
2023-09-08T08:28:15.995Z,97318.64
2023-09-08T08:30:48.891Z,97314.83
2023-09-08T08:33:17.895Z,97314.83
2023-09-08T08:35:54.651Z,97313.71
2023-09-08T08:38:24.598Z,97306.30
2023-09-08T08:40:56.263Z,97301.92
2023-09-08T08:43:28.551Z,97305.48
2023-09-08T08:46:00.996Z,97303.56
2023-09-08T08:48:32.161Z,97326.87
2023-09-08T08:51:04.446Z,97336.73
2023-09-08T08:53:35.049Z,97337.02
2023-09-08T08:56:05.252Z,97336.00
2023-09-08T08:58:35.633Z,97328.14
2023-09-08T09:01:06.347Z,97316.64
2023-09-08T09:03:39.245Z,97316.66
2023-09-08T09:06:10.915Z,97321.58
2023-09-08T09:08:41.087Z,97324.03
2023-09-08T09:11:11.161Z,97325.92
2023-09-08T09:13:41.229Z,97321.81
2023-09-08T09:16:12.322Z,97317.42
2023-09-08T09:19:01.368Z,97325.08
2023-09-08T09:21:45.896Z,97328.91
2023-09-08T09:24:21.317Z,97320.14
2023-09-08T09:26:53.252Z,97329.16
2023-09-08T09:29:23.530Z,97334.34
2023-09-08T09:32:01.638Z,97329.70
2023-09-08T09:34:32.275Z,97337.06
2023-09-08T09:37:02.411Z,97334.88
2023-09-08T09:39:32.700Z,97336.52
2023-09-08T09:42:02.732Z,97342.26
2023-09-08T09:44:32.794Z,97338.16
2023-09-08T09:47:04.730Z,97337.85
2023-09-08T09:49:34.982Z,97339.51
2023-09-08T09:52:05.183Z,97340.87
2023-09-08T09:54:35.365Z,97335.95
2023-09-08T09:57:05.635Z,97338.69
2023-09-08T09:59:35.776Z,97332.35
2023-09-08T10:02:06.173Z,97339.75
2023-09-08T10:04:36.313Z,97345.78
2023-09-08T10:07:06.728Z,97337.00
2023-09-08T10:09:38.121Z,97333.45
2023-09-08T10:12:08.711Z,97336.73
2023-09-08T10:14:39.483Z,97353.98
2023-09-08T10:17:09.508Z,97357.53
2023-09-08T10:19:40.943Z,97356.74
2023-09-08T10:22:12.139Z,97357.61
2023-09-08T10:24:42.938Z,97336.59
2023-09-08T10:27:14.869Z,97332.77
2023-09-08T10:29:44.977Z,97334.69
2023-09-08T10:32:16.508Z,97332.49
2023-09-08T10:34:46.537Z,97333.86
2023-09-08T10:37:26.975Z,97335.78
2023-09-08T10:39:57.403Z,97339.59
2023-09-08T10:42:29.489Z,97342.88
2023-09-08T10:45:00.729Z,97344.78
2023-09-08T10:47:39.980Z,97344.78
2023-09-08T10:50:12.759Z,97344.48
2023-09-08T10:52:42.909Z,97348.58
2023-09-08T10:55:14.262Z,97357.09
2023-09-08T10:57:48.824Z,97351.31
2023-09-08T11:00:22.142Z,97359.25
2023-09-08T11:02:56.861Z,97362.25
2023-09-08T11:05:26.930Z,97363.91
2023-09-08T11:07:57.126Z,97357.32
2023-09-08T11:10:27.222Z,97367.45
2023-09-08T11:12:59.751Z,97367.16
2023-09-08T11:15:32.205Z,97365.23
2023-09-08T11:18:06.783Z,97367.44
2023-09-08T11:20:37.677Z,97371.53
2023-09-08T11:23:28.461Z,97379.75
2023-09-08T11:25:59.919Z,97381.64
2023-09-08T11:28:32.156Z,97391.52
2023-09-08T11:31:03.088Z,97396.44
2023-09-08T11:33:36.422Z,97400.81
2023-09-08T11:36:08.230Z,97404.65
2023-09-08T11:38:39.619Z,97404.35
2023-09-08T11:41:09.645Z,97404.93
2023-09-08T11:43:39.716Z,97406.01
2023-09-08T11:46:09.961Z,97408.75
2023-09-08T11:48:41.662Z,97413.41
2023-09-08T11:51:13.255Z,97413.14
2023-09-08T11:53:43.290Z,97416.70
2023-09-08T11:56:13.368Z,97418.91
2023-09-08T11:58:43.316Z,97425.76
2023-09-08T12:01:13.700Z,97425.76
2023-09-08T12:03:57.850Z,97430.69
2023-09-08T12:06:29.508Z,97429.31
2023-09-08T12:09:03.086Z,97435.88
2023-09-08T12:11:39.119Z,97440.27
2023-09-08T12:14:11.310Z,97445.45
2023-09-08T12:16:41.723Z,97463.25
2023-09-08T12:19:12.160Z,97472.31
2023-09-08T12:21:59.242Z,97494.75
2023-09-08T12:24:52.745Z,97508.45
2023-09-08T12:27:22.708Z,97521.34
2023-09-08T12:30:02.515Z,97543.53
2023-09-08T12:32:33.498Z,97552.57
2023-09-08T12:35:12.172Z,97552.28
2023-09-08T12:37:43.760Z,97563.79
2023-09-08T12:40:14.643Z,97567.08
2023-09-08T12:42:50.803Z,97574.48
2023-09-08T12:45:18.389Z,97578.59
2023-09-08T12:47:48.533Z,97571.75
2023-09-08T12:50:20.322Z,97566.52
2023-09-08T12:52:50.450Z,97568.16
2023-09-08T12:55:20.502Z,97572.55
2023-09-08T12:57:51.862Z,97577.48
2023-09-08T13:00:23.418Z,97605.69
2023-09-08T13:02:56.658Z,97610.36
2023-09-08T13:05:26.690Z,97616.92
2023-09-08T13:07:58.657Z,97617.22
2023-09-08T13:10:28.883Z,97615.03
2023-09-08T13:12:58.969Z,97608.98
2023-09-08T13:15:29.348Z,97611.14
2023-09-08T13:17:59.376Z,97601.83
2023-09-08T13:20:29.853Z,97613.28
2023-09-08T13:22:59.953Z,97592.49
2023-09-08T13:25:30.444Z,97600.41
2023-09-08T13:28:01.559Z,97594.69
2023-09-08T13:30:32.664Z,97594.39
2023-09-08T13:33:05.296Z,97599.32
2023-09-08T13:35:35.856Z,97592.23
2023-09-08T13:38:06.330Z,97589.77
2023-09-08T13:40:36.487Z,97594.14
2023-09-08T13:43:07.360Z,97598.81
2023-09-08T13:45:37.939Z,97591.98
2023-09-08T13:48:09.895Z,97587.88
2023-09-08T13:50:44.585Z,97590.36
2023-09-08T13:53:15.175Z,97593.62
2023-09-08T13:55:46.204Z,97601.02
2023-09-08T13:58:19.887Z,97606.53
2023-09-08T14:00:53.587Z,97623.50
2023-09-08T14:03:23.136Z,97621.32
2023-09-08T14:05:55.330Z,97593.91
2023-09-08T14:08:29.605Z,97598.27
2023-09-08T14:13:34.276Z,97594.72
2023-09-08T14:16:05.690Z,97593.61
2023-09-08T14:18:37.391Z,97599.39
2023-09-08T14:21:07.447Z,97596.39
2023-09-08T14:23:38.912Z,97619.39
2023-09-08T14:26:09.410Z,97618.03
2023-09-08T14:28:41.228Z,97619.61
2023-09-08T14:31:11.541Z,97614.40
2023-09-08T14:33:41.877Z,97608.36
2023-09-08T14:36:11.926Z,97600.96
2023-09-08T14:38:43.311Z,97598.78
2023-09-08T14:41:13.519Z,97599.05
2023-09-08T14:43:45.138Z,97597.69
2023-09-08T14:46:15.278Z,97600.17
2023-09-08T14:48:45.622Z,97600.16
2023-09-08T14:51:15.826Z,97605.11
2023-09-08T14:53:46.051Z,97609.22
2023-09-08T14:56:16.139Z,97612.22
2023-09-08T14:58:46.077Z,97609.49
2023-09-08T15:01:17.356Z,97616.89
2023-09-08T15:03:47.514Z,97615.50
2023-09-08T15:06:17.667Z,97617.98
2023-09-08T15:08:48.616Z,97622.09
2023-09-08T15:11:18.779Z,97636.88
2023-09-08T15:13:49.043Z,97636.88
2023-09-08T15:16:19.319Z,97634.11
2023-09-08T15:18:50.857Z,97606.47
2023-09-08T15:21:22.196Z,97611.94
2023-09-08T15:23:52.166Z,97609.46
2023-09-08T15:26:22.247Z,97612.20
2023-09-08T15:28:52.214Z,97612.21
2023-09-08T15:31:22.377Z,97611.93
2023-09-08T15:33:53.796Z,97617.70
2023-09-08T15:36:23.898Z,97615.23
2023-09-08T15:38:53.893Z,97610.32
2023-09-08T15:41:24.047Z,97610.03
2023-09-08T15:43:54.362Z,97612.25
2023-09-08T15:46:27.431Z,97627.56
2023-09-08T15:48:57.621Z,97633.04
2023-09-08T15:51:27.595Z,97625.63
2023-09-08T15:53:57.751Z,97610.84
2023-09-08T15:56:28.081Z,97612.20
2023-09-08T15:58:59.402Z,97616.57
2023-09-08T16:01:29.680Z,97598.78
2023-09-08T16:04:00.032Z,97613.84
2023-09-08T16:06:30.371Z,97615.77
2023-09-08T16:09:00.346Z,97614.16
2023-09-08T16:11:30.405Z,97628.37
2023-09-08T16:14:01.709Z,97605.11
2023-09-08T16:16:32.105Z,97607.30
2023-09-08T16:19:03.652Z,97601.30
2023-09-08T16:21:34.444Z,97602.12
2023-09-08T16:24:07.816Z,97602.67
2023-09-08T16:26:40.021Z,97605.41
2023-09-08T16:29:12.628Z,97620.20
2023-09-08T16:31:42.674Z,97618.58
2023-09-08T16:34:12.888Z,97614.13
2023-09-08T16:36:43.952Z,97608.92
2023-09-08T16:39:15.683Z,97590.31
2023-09-08T16:41:47.265Z,97586.49
2023-09-08T16:44:17.477Z,97586.20
2023-09-08T16:46:47.682Z,97582.11
2023-09-08T16:49:18.928Z,97578.83
2023-09-08T16:51:49.922Z,97574.73
2023-09-08T16:54:20.173Z,97574.18
2023-09-08T16:56:50.256Z,97584.05
2023-09-08T16:59:22.248Z,97582.41
2023-09-08T17:01:52.977Z,97581.59
2023-09-08T17:04:23.289Z,97605.11
2023-09-08T17:06:53.483Z,97605.12
2023-09-08T17:09:24.294Z,97611.96
2023-09-08T17:11:54.386Z,97614.13
2023-09-08T17:14:24.492Z,97605.64
2023-09-08T17:16:54.460Z,97616.84
2023-09-08T17:19:24.532Z,97592.76
2023-09-08T17:21:54.594Z,97591.94
2023-09-08T17:24:24.595Z,97591.10
2023-09-08T17:26:54.705Z,97592.48
2023-09-08T17:29:25.071Z,97587.02
2023-09-08T17:31:56.275Z,97581.00
2023-09-08T17:34:26.491Z,97579.64
2023-09-08T17:36:58.199Z,97582.39
2023-09-08T17:39:29.743Z,97570.08
2023-09-08T17:41:59.944Z,97570.37
2023-09-08T17:44:29.964Z,97569.83
2023-09-08T17:47:01.461Z,97567.10
2023-09-08T17:49:31.630Z,97571.73
2023-09-08T17:52:04.281Z,97587.63
2023-09-08T17:54:33.186Z,97584.37
2023-09-08T17:57:03.431Z,97584.37
2023-09-08T17:59:33.629Z,97579.67
2023-09-08T18:02:04.139Z,97580.50
2023-09-08T18:04:36.535Z,97558.30
2023-09-08T18:07:07.101Z,97563.52
2023-09-08T18:09:38.402Z,97558.30
2023-09-08T18:12:09.888Z,97565.44
2023-09-08T18:14:40.046Z,97570.63
2023-09-08T18:17:11.518Z,97568.45
2023-09-08T18:19:41.983Z,97568.72
2023-09-08T18:22:14.755Z,97583.78
2023-09-08T18:24:44.813Z,97576.38
2023-09-08T18:27:14.995Z,97577.22
2023-09-08T18:29:46.269Z,97578.28
2023-09-08T18:32:18.041Z,97556.13
2023-09-08T18:34:53.695Z,97553.94
2023-09-08T18:37:22.578Z,97550.39
2023-09-08T18:39:53.781Z,97555.02
2023-09-08T18:42:24.216Z,97557.51
2023-09-08T18:44:54.173Z,97560.80
2023-09-08T18:47:25.410Z,97559.70
2023-09-08T18:49:55.506Z,97559.97
2023-09-08T18:52:26.475Z,97555.87
2023-09-08T18:54:56.567Z,97549.88
2023-09-08T18:57:27.304Z,97543.84
2023-09-08T18:59:57.338Z,97559.45
2023-09-08T19:02:30.334Z,97562.20
2023-09-08T19:05:00.538Z,97541.93
2023-09-08T19:07:30.753Z,97532.35
2023-09-08T19:10:00.690Z,97528.54
2023-09-08T19:12:30.704Z,97529.09
2023-09-08T19:15:00.616Z,97533.17
2023-09-08T19:17:30.886Z,97558.09
2023-09-08T19:20:00.809Z,97551.80
2023-09-08T19:22:32.195Z,97552.63
2023-09-08T19:25:02.798Z,97544.14
2023-09-08T19:27:33.522Z,97548.80
2023-09-08T19:30:03.521Z,97548.47
2023-09-08T19:32:33.554Z,97540.55
2023-09-08T19:35:03.658Z,97541.08
2023-09-08T19:37:33.628Z,97541.88
2023-09-08T19:40:04.985Z,97542.72
2023-09-08T19:42:35.572Z,97525.20
2023-09-08T19:45:06.725Z,97518.36
2023-09-08T19:47:37.525Z,97527.69
2023-09-08T19:50:09.143Z,97522.48
2023-09-08T19:52:40.922Z,97520.83
2023-09-08T19:55:12.604Z,97527.41
2023-09-08T19:57:42.763Z,97531.23
2023-09-08T20:00:13.730Z,97551.20
2023-09-08T20:02:44.609Z,97552.05
2023-09-08T20:05:15.044Z,97529.05
2023-09-08T20:07:45.712Z,97548.76
2023-09-08T20:10:17.011Z,97549.30
2023-09-08T20:12:48.412Z,97542.19
2023-09-08T20:15:18.741Z,97536.16
2023-09-08T20:17:48.755Z,97521.10
2023-09-08T20:20:19.138Z,97520.00
2023-09-08T20:22:49.333Z,97520.00
2023-09-08T20:25:20.686Z,97515.09
2023-09-08T20:27:51.141Z,97533.14
2023-09-08T20:30:21.294Z,97539.44
2023-09-08T20:32:51.468Z,97512.92
2023-09-08T20:35:21.836Z,97516.74
2023-09-08T20:37:51.653Z,97505.25
2023-09-08T20:40:21.581Z,97510.75
2023-09-08T20:42:53.125Z,97529.64
2023-09-08T20:45:23.679Z,97533.45
2023-09-08T20:47:55.217Z,97533.72
2023-09-08T20:50:27.652Z,97529.64
2023-09-08T20:52:58.695Z,97527.72
2023-09-08T20:55:28.812Z,97527.69
2023-09-08T20:57:58.836Z,97526.31
2023-09-08T21:00:29.120Z,97523.31
2023-09-08T21:02:59.858Z,97520.84
2023-09-08T21:05:31.352Z,97526.59
2023-09-08T21:08:01.374Z,97534.23
2023-09-08T21:10:31.308Z,97523.02
2023-09-08T21:13:01.420Z,97523.28
2023-09-08T21:15:31.480Z,97521.38
2023-09-08T21:18:01.607Z,97520.00
2023-09-08T21:20:32.818Z,97520.55
2023-09-08T21:23:04.249Z,97499.48
2023-09-08T21:25:34.591Z,97504.40
2023-09-08T21:28:05.297Z,97499.20
2023-09-08T21:30:35.495Z,97494.84
2023-09-08T21:33:08.446Z,97520.55
2023-09-08T21:35:39.039Z,97522.48
2023-09-08T21:38:10.343Z,97523.84
2023-09-08T21:40:45.317Z,97522.48
2023-09-08T21:43:15.352Z,97524.67
2023-09-08T21:45:46.930Z,97521.66
2023-09-08T21:48:16.973Z,97519.74
2023-09-08T21:50:47.200Z,97518.92
2023-09-08T21:53:17.221Z,97520.84
2023-09-08T21:55:49.715Z,97502.77
2023-09-08T21:58:20.895Z,97501.96
2023-09-08T22:00:51.996Z,97500.34
2023-09-08T22:03:22.342Z,97524.41
2023-09-08T22:05:52.819Z,97527.41
2023-09-08T22:08:22.902Z,97526.61
2023-09-08T22:10:53.281Z,97529.61
2023-09-08T22:13:23.337Z,97533.45
2023-09-08T22:15:53.854Z,97535.33
2023-09-08T22:18:24.808Z,97536.98
2023-09-08T22:20:57.970Z,97532.06
2023-09-08T22:23:29.354Z,97538.61
2023-09-08T22:25:59.397Z,97535.88
2023-09-08T22:28:29.635Z,97541.36
2023-09-08T22:30:59.623Z,97533.41
2023-09-08T22:33:31.325Z,97534.78
2023-09-08T22:36:01.962Z,97522.76
2023-09-08T22:38:32.907Z,97533.67
2023-09-08T22:41:03.287Z,97532.88
2023-09-08T22:43:33.382Z,97535.88
2023-09-08T22:46:04.176Z,97531.23
2023-09-08T22:48:35.327Z,97553.67
2023-09-08T22:51:05.560Z,97559.97
2023-09-08T22:53:37.470Z,97559.45
2023-09-08T22:56:07.791Z,97563.30
2023-09-08T22:58:44.392Z,97569.32
2023-09-08T23:01:15.890Z,97570.10
2023-09-08T23:03:47.291Z,97576.13
2023-09-08T23:06:17.651Z,97581.04
2023-09-08T23:08:47.708Z,97573.64
2023-09-08T23:11:17.946Z,97560.80
2023-09-08T23:13:49.375Z,97562.17
2023-09-08T23:16:19.652Z,97567.09
2023-09-08T23:18:49.678Z,97570.39
2023-09-08T23:21:20.735Z,97570.39
2023-09-08T23:23:50.749Z,97592.84
2023-09-08T23:26:20.917Z,97594.48
2023-09-08T23:28:53.987Z,97599.95
2023-09-08T23:31:24.310Z,97595.85
2023-09-08T23:33:55.810Z,97596.14
2023-09-08T23:36:26.168Z,97595.84
2023-09-08T23:38:56.097Z,97596.35
2023-09-08T23:41:26.458Z,97603.73
2023-09-08T23:43:56.974Z,97582.95
2023-09-08T23:46:27.263Z,97579.11
2023-09-08T23:48:57.905Z,97592.25
2023-09-08T23:51:28.261Z,97590.91
2023-09-08T23:53:58.300Z,97592.84
2023-09-08T23:56:28.640Z,97598.58
2023-09-08T23:58:58.840Z,97628.14
